sensor_id;sensor_type;location;lat;lon;timestamp;P1;durP1;ratioP1;P2;durP2;ratioP2
67053;SDS011;53960;51.826;5.850;2022-07-06T00:01:26;5.97;;;1.67;;
67053;SDS011;53960;51.826;5.850;2022-07-06T00:03:51;9.30;;;2.17;;
67053;SDS011;53960;51.826;5.850;2022-07-06T00:06:16;7.70;;;2.00;;
67053;SDS011;53960;51.826;5.850;2022-07-06T00:08:42;9.13;;;2.30;;
67053;SDS011;53960;51.826;5.850;2022-07-06T00:11:07;7.67;;;1.93;;
67053;SDS011;53960;51.826;5.850;2022-07-06T00:13:33;11.33;;;2.10;;
67053;SDS011;53960;51.826;5.850;2022-07-06T00:15:58;9.87;;;1.90;;
67053;SDS011;53960;51.826;5.850;2022-07-06T00:18:23;8.02;;;1.88;;
67053;SDS011;53960;51.826;5.850;2022-07-06T00:20:49;9.77;;;2.17;;
67053;SDS011;53960;51.826;5.850;2022-07-06T00:23:14;10.30;;;2.13;;
67053;SDS011;53960;51.826;5.850;2022-07-06T00:25:39;10.30;;;2.20;;
67053;SDS011;53960;51.826;5.850;2022-07-06T00:28:05;14.97;;;2.40;;
67053;SDS011;53960;51.826;5.850;2022-07-06T00:30:30;10.03;;;2.30;;
67053;SDS011;53960;51.826;5.850;2022-07-06T00:32:55;12.23;;;2.50;;
67053;SDS011;53960;51.826;5.850;2022-07-06T00:35:23;7.47;;;2.17;;
67053;SDS011;53960;51.826;5.850;2022-07-06T00:37:51;10.88;;;2.40;;
67053;SDS011;53960;51.826;5.850;2022-07-06T00:40:17;11.27;;;2.22;;
67053;SDS011;53960;51.826;5.850;2022-07-06T00:42:44;9.70;;;2.33;;
67053;SDS011;53960;51.826;5.850;2022-07-06T00:45:13;10.30;;;2.60;;
67053;SDS011;53960;51.826;5.850;2022-07-06T00:47:39;11.55;;;2.70;;
67053;SDS011;53960;51.826;5.850;2022-07-06T00:50:06;10.63;;;2.50;;
67053;SDS011;53960;51.826;5.850;2022-07-06T00:52:59;17.83;;;2.85;;
67053;SDS011;53960;51.826;5.850;2022-07-06T00:55:29;14.10;;;2.67;;
67053;SDS011;53960;51.826;5.850;2022-07-06T00:57:57;14.73;;;2.30;;
67053;SDS011;53960;51.826;5.850;2022-07-06T01:00:24;14.52;;;2.80;;
67053;SDS011;53960;51.826;5.850;2022-07-06T01:02:51;8.90;;;2.30;;
67053;SDS011;53960;51.826;5.850;2022-07-06T01:05:17;13.90;;;2.80;;
67053;SDS011;53960;51.826;5.850;2022-07-06T01:07:43;9.33;;;2.60;;
67053;SDS011;53960;51.826;5.850;2022-07-06T01:10:11;9.13;;;2.30;;
67053;SDS011;53960;51.826;5.850;2022-07-06T01:12:40;8.90;;;2.27;;
67053;SDS011;53960;51.826;5.850;2022-07-06T01:15:08;13.65;;;2.30;;
67053;SDS011;53960;51.826;5.850;2022-07-06T01:17:35;9.80;;;2.58;;
67053;SDS011;53960;51.826;5.850;2022-07-06T01:22:59;10.57;;;2.47;;
67053;SDS011;53960;51.826;5.850;2022-07-06T01:25:24;10.70;;;2.97;;
67053;SDS011;53960;51.826;5.850;2022-07-06T01:27:50;11.93;;;2.37;;
67053;SDS011;53960;51.826;5.850;2022-07-06T01:30:16;13.83;;;2.60;;
67053;SDS011;53960;51.826;5.850;2022-07-06T01:32:42;9.73;;;2.60;;
67053;SDS011;53960;51.826;5.850;2022-07-06T01:35:09;10.02;;;2.53;;
67053;SDS011;53960;51.826;5.850;2022-07-06T01:37:36;14.05;;;2.70;;
67053;SDS011;53960;51.826;5.850;2022-07-06T01:40:03;8.77;;;2.40;;
67053;SDS011;53960;51.826;5.850;2022-07-06T01:42:30;8.13;;;2.25;;
67053;SDS011;53960;51.826;5.850;2022-07-06T01:44:56;9.15;;;2.00;;
67053;SDS011;53960;51.826;5.850;2022-07-06T01:47:22;7.40;;;2.20;;
67053;SDS011;53960;51.826;5.850;2022-07-06T01:49:48;8.20;;;1.90;;
67053;SDS011;53960;51.826;5.850;2022-07-06T01:52:13;8.67;;;2.50;;
67053;SDS011;53960;51.826;5.850;2022-07-06T01:54:38;8.10;;;1.93;;
67053;SDS011;53960;51.826;5.850;2022-07-06T01:57:04;7.27;;;2.30;;
67053;SDS011;53960;51.826;5.850;2022-07-06T01:59:29;6.80;;;2.00;;
67053;SDS011;53960;51.826;5.850;2022-07-06T02:01:55;7.10;;;1.90;;
67053;SDS011;53960;51.826;5.850;2022-07-06T02:04:20;7.30;;;2.07;;
67053;SDS011;53960;51.826;5.850;2022-07-06T02:06:46;7.93;;;2.20;;
67053;SDS011;53960;51.826;5.850;2022-07-06T02:09:11;7.72;;;2.00;;
67053;SDS011;53960;51.826;5.850;2022-07-06T02:11:36;6.53;;;1.73;;
67053;SDS011;53960;51.826;5.850;2022-07-06T02:14:02;7.03;;;2.20;;
67053;SDS011;53960;51.826;5.850;2022-07-06T02:16:27;9.03;;;2.60;;
67053;SDS011;53960;51.826;5.850;2022-07-06T02:18:52;7.20;;;1.97;;
67053;SDS011;53960;51.826;5.850;2022-07-06T02:21:18;8.23;;;2.40;;
67053;SDS011;53960;51.826;5.850;2022-07-06T02:23:43;7.70;;;2.40;;
67053;SDS011;53960;51.826;5.850;2022-07-06T02:26:08;8.30;;;2.47;;
67053;SDS011;53960;51.826;5.850;2022-07-06T02:28:34;8.02;;;2.42;;
67053;SDS011;53960;51.826;5.850;2022-07-06T02:30:59;6.80;;;2.30;;
67053;SDS011;53960;51.826;5.850;2022-07-06T02:33:25;8.10;;;2.43;;
67053;SDS011;53960;51.826;5.850;2022-07-06T02:35:50;9.03;;;2.37;;
67053;SDS011;53960;51.826;5.850;2022-07-06T02:38:15;7.90;;;2.70;;
67053;SDS011;53960;51.826;5.850;2022-07-06T02:40:41;7.77;;;2.60;;
67053;SDS011;53960;51.826;5.850;2022-07-06T02:43:06;8.90;;;2.60;;
67053;SDS011;53960;51.826;5.850;2022-07-06T02:45:32;9.57;;;2.87;;
67053;SDS011;53960;51.826;5.850;2022-07-06T02:47:57;7.65;;;2.75;;
67053;SDS011;53960;51.826;5.850;2022-07-06T02:50:23;7.63;;;2.83;;
67053;SDS011;53960;51.826;5.850;2022-07-06T02:52:49;8.02;;;2.67;;
67053;SDS011;53960;51.826;5.850;2022-07-06T02:55:14;7.87;;;3.00;;
67053;SDS011;53960;51.826;5.850;2022-07-06T02:57:40;6.60;;;2.60;;
67053;SDS011;53960;51.826;5.850;2022-07-06T03:00:05;8.90;;;3.00;;
67053;SDS011;53960;51.826;5.850;2022-07-06T03:02:31;7.47;;;2.80;;
67053;SDS011;53960;51.826;5.850;2022-07-06T03:04:57;8.93;;;3.20;;
67053;SDS011;53960;51.826;5.850;2022-07-06T03:07:22;8.00;;;2.87;;
67053;SDS011;53960;51.826;5.850;2022-07-06T03:09:47;7.60;;;2.90;;
67053;SDS011;53960;51.826;5.850;2022-07-06T03:12:13;8.55;;;2.67;;
67053;SDS011;53960;51.826;5.850;2022-07-06T03:14:39;7.87;;;2.87;;
67053;SDS011;53960;51.826;5.850;2022-07-06T03:17:04;8.40;;;2.90;;
67053;SDS011;53960;51.826;5.850;2022-07-06T03:19:29;9.07;;;2.93;;
67053;SDS011;53960;51.826;5.850;2022-07-06T03:21:55;9.40;;;3.00;;
67053;SDS011;53960;51.826;5.850;2022-07-06T03:24:20;9.20;;;2.90;;
67053;SDS011;53960;51.826;5.850;2022-07-06T03:26:45;7.20;;;3.10;;
67053;SDS011;53960;51.826;5.850;2022-07-06T03:29:11;8.60;;;2.70;;
67053;SDS011;53960;51.826;5.850;2022-07-06T03:31:36;8.53;;;3.23;;
67053;SDS011;53960;51.826;5.850;2022-07-06T03:34:01;8.43;;;3.27;;
67053;SDS011;53960;51.826;5.850;2022-07-06T03:36:27;10.23;;;3.22;;
67053;SDS011;53960;51.826;5.850;2022-07-06T03:38:52;8.10;;;3.17;;
67053;SDS011;53960;51.826;5.850;2022-07-06T03:41:17;9.50;;;3.23;;
67053;SDS011;53960;51.826;5.850;2022-07-06T03:43:42;10.23;;;3.50;;
67053;SDS011;53960;51.826;5.850;2022-07-06T03:46:08;8.80;;;3.67;;
67053;SDS011;53960;51.826;5.850;2022-07-06T03:48:33;10.93;;;4.17;;
67053;SDS011;53960;51.826;5.850;2022-07-06T03:51:00;7.90;;;3.17;;
67053;SDS011;53960;51.826;5.850;2022-07-06T03:53:25;9.20;;;2.87;;
67053;SDS011;53960;51.826;5.850;2022-07-06T03:55:51;11.93;;;3.45;;
67053;SDS011;53960;51.826;5.850;2022-07-06T03:58:35;8.63;;;3.40;;
67053;SDS011;53960;51.826;5.850;2022-07-06T04:01:00;8.43;;;2.90;;
67053;SDS011;53960;51.826;5.850;2022-07-06T04:03:25;8.30;;;3.23;;
67053;SDS011;53960;51.826;5.850;2022-07-06T04:05:51;9.17;;;3.33;;
67053;SDS011;53960;51.826;5.850;2022-07-06T04:08:16;9.97;;;3.30;;
67053;SDS011;53960;51.826;5.850;2022-07-06T04:10:41;9.07;;;3.13;;
67053;SDS011;53960;51.826;5.850;2022-07-06T04:13:07;10.73;;;3.13;;
67053;SDS011;53960;51.826;5.850;2022-07-06T04:15:32;10.23;;;3.67;;
67053;SDS011;53960;51.826;5.850;2022-07-06T04:17:57;9.23;;;3.60;;
67053;SDS011;53960;51.826;5.850;2022-07-06T04:20:23;8.47;;;3.43;;
67053;SDS011;53960;51.826;5.850;2022-07-06T04:22:50;9.45;;;3.63;;
67053;SDS011;53960;51.826;5.850;2022-07-06T04:25:16;8.43;;;3.00;;
67053;SDS011;53960;51.826;5.850;2022-07-06T04:27:42;10.13;;;3.40;;
67053;SDS011;53960;51.826;5.850;2022-07-06T04:30:07;9.33;;;3.10;;
67053;SDS011;53960;51.826;5.850;2022-07-06T04:32:34;9.13;;;3.22;;
67053;SDS011;53960;51.826;5.850;2022-07-06T04:34:59;9.33;;;3.23;;
67053;SDS011;53960;51.826;5.850;2022-07-06T04:37:25;11.23;;;3.65;;
67053;SDS011;53960;51.826;5.850;2022-07-06T04:39:50;7.07;;;3.00;;
67053;SDS011;53960;51.826;5.850;2022-07-06T04:42:15;9.07;;;3.23;;
67053;SDS011;53960;51.826;5.850;2022-07-06T04:44:41;8.37;;;3.00;;
67053;SDS011;53960;51.826;5.850;2022-07-06T04:47:06;11.53;;;2.87;;
67053;SDS011;53960;51.826;5.850;2022-07-06T04:49:31;10.17;;;2.83;;
67053;SDS011;53960;51.826;5.850;2022-07-06T04:51:57;10.30;;;3.50;;
67053;SDS011;53960;51.826;5.850;2022-07-06T04:54:23;10.80;;;3.57;;
67053;SDS011;53960;51.826;5.850;2022-07-06T04:56:48;8.90;;;3.53;;
67053;SDS011;53960;51.826;5.850;2022-07-06T04:59:13;9.00;;;3.40;;
67053;SDS011;53960;51.826;5.850;2022-07-06T05:01:39;8.30;;;3.30;;
67053;SDS011;53960;51.826;5.850;2022-07-06T05:04:05;7.90;;;3.08;;
67053;SDS011;53960;51.826;5.850;2022-07-06T05:06:31;8.90;;;3.50;;
67053;SDS011;53960;51.826;5.850;2022-07-06T05:08:56;9.80;;;3.60;;
67053;SDS011;53960;51.826;5.850;2022-07-06T05:11:24;9.70;;;3.30;;
67053;SDS011;53960;51.826;5.850;2022-07-06T05:13:49;10.43;;;3.53;;
67053;SDS011;53960;51.826;5.850;2022-07-06T05:16:14;7.80;;;3.03;;
67053;SDS011;53960;51.826;5.850;2022-07-06T05:18:40;8.10;;;3.43;;
67053;SDS011;53960;51.826;5.850;2022-07-06T05:21:05;8.57;;;3.33;;
67053;SDS011;53960;51.826;5.850;2022-07-06T05:23:30;9.13;;;3.53;;
67053;SDS011;53960;51.826;5.850;2022-07-06T05:25:56;7.87;;;3.20;;
67053;SDS011;53960;51.826;5.850;2022-07-06T05:28:21;9.03;;;3.10;;
67053;SDS011;53960;51.826;5.850;2022-07-06T05:30:46;8.63;;;3.73;;
67053;SDS011;53960;51.826;5.850;2022-07-06T05:33:12;10.03;;;3.30;;
67053;SDS011;53960;51.826;5.850;2022-07-06T05:35:37;8.90;;;3.07;;
67053;SDS011;53960;51.826;5.850;2022-07-06T05:38:02;9.13;;;3.17;;
67053;SDS011;53960;51.826;5.850;2022-07-06T05:40:28;9.10;;;3.30;;
67053;SDS011;53960;51.826;5.850;2022-07-06T05:42:54;8.00;;;3.17;;
67053;SDS011;53960;51.826;5.850;2022-07-06T05:45:19;9.07;;;3.37;;
67053;SDS011;53960;51.826;5.850;2022-07-06T05:47:44;10.97;;;3.30;;
67053;SDS011;53960;51.826;5.850;2022-07-06T05:50:28;9.80;;;2.15;;
67053;SDS011;53960;51.826;5.850;2022-07-06T05:53:00;8.67;;;2.13;;
67053;SDS011;53960;51.826;5.850;2022-07-06T05:55:27;7.95;;;1.90;;
67053;SDS011;53960;51.826;5.850;2022-07-06T05:57:53;8.70;;;1.97;;
67053;SDS011;53960;51.826;5.850;2022-07-06T06:00:19;9.97;;;1.97;;
67053;SDS011;53960;51.826;5.850;2022-07-06T06:02:45;6.75;;;1.83;;
67053;SDS011;53960;51.826;5.850;2022-07-06T06:05:11;7.17;;;1.90;;
67053;SDS011;53960;51.826;5.850;2022-07-06T06:07:38;10.35;;;1.80;;
67053;SDS011;53960;51.826;5.850;2022-07-06T06:10:04;7.50;;;1.80;;
67053;SDS011;53960;51.826;5.850;2022-07-06T06:12:31;7.93;;;1.92;;
67053;SDS011;53960;51.826;5.850;2022-07-06T06:14:57;8.43;;;2.00;;
67053;SDS011;53960;51.826;5.850;2022-07-06T06:17:22;7.03;;;1.50;;
67053;SDS011;53960;51.826;5.850;2022-07-06T06:19:48;6.83;;;1.60;;
67053;SDS011;53960;51.826;5.850;2022-07-06T06:22:13;6.63;;;1.40;;
67053;SDS011;53960;51.826;5.850;2022-07-06T06:24:39;5.87;;;1.40;;
67053;SDS011;53960;51.826;5.850;2022-07-06T06:27:04;6.93;;;1.70;;
67053;SDS011;53960;51.826;5.850;2022-07-06T06:29:30;7.40;;;1.60;;
67053;SDS011;53960;51.826;5.850;2022-07-06T06:31:55;7.77;;;1.57;;
67053;SDS011;53960;51.826;5.850;2022-07-06T06:34:20;7.43;;;1.60;;
67053;SDS011;53960;51.826;5.850;2022-07-06T06:36:46;8.83;;;1.60;;
67053;SDS011;53960;51.826;5.850;2022-07-06T06:39:11;6.70;;;1.50;;
67053;SDS011;53960;51.826;5.850;2022-07-06T06:41:36;6.40;;;1.50;;
67053;SDS011;53960;51.826;5.850;2022-07-06T06:44:01;8.67;;;2.10;;
67053;SDS011;53960;51.826;5.850;2022-07-06T06:46:27;8.57;;;1.63;;
67053;SDS011;53960;51.826;5.850;2022-07-06T06:48:52;8.40;;;1.50;;
67053;SDS011;53960;51.826;5.850;2022-07-06T06:51:18;4.73;;;0.90;;
67053;SDS011;53960;51.826;5.850;2022-07-06T06:53:43;6.05;;;0.90;;
67053;SDS011;53960;51.826;5.850;2022-07-06T06:56:08;4.33;;;0.90;;
67053;SDS011;53960;51.826;5.850;2022-07-06T06:58:34;4.67;;;0.80;;
67053;SDS011;53960;51.826;5.850;2022-07-06T07:00:59;5.20;;;1.23;;
67053;SDS011;53960;51.826;5.850;2022-07-06T07:03:24;5.83;;;1.27;;
67053;SDS011;53960;51.826;5.850;2022-07-06T07:05:50;5.00;;;0.90;;
67053;SDS011;53960;51.826;5.850;2022-07-06T07:08:15;6.20;;;1.20;;
67053;SDS011;53960;51.826;5.850;2022-07-06T07:10:40;4.73;;;1.07;;
67053;SDS011;53960;51.826;5.850;2022-07-06T07:13:06;5.63;;;1.07;;
67053;SDS011;53960;51.826;5.850;2022-07-06T07:15:31;6.30;;;1.00;;
67053;SDS011;53960;51.826;5.850;2022-07-06T07:17:57;5.57;;;1.13;;
67053;SDS011;53960;51.826;5.850;2022-07-06T07:20:22;4.73;;;1.10;;
67053;SDS011;53960;51.826;5.850;2022-07-06T07:22:48;4.00;;;1.03;;
67053;SDS011;53960;51.826;5.850;2022-07-06T07:25:13;7.90;;;1.00;;
67053;SDS011;53960;51.826;5.850;2022-07-06T07:27:38;7.13;;;1.33;;
67053;SDS011;53960;51.826;5.850;2022-07-06T07:30:04;7.67;;;1.10;;
67053;SDS011;53960;51.826;5.850;2022-07-06T07:32:30;6.82;;;0.93;;
67053;SDS011;53960;51.826;5.850;2022-07-06T07:34:55;4.53;;;1.17;;
67053;SDS011;53960;51.826;5.850;2022-07-06T07:37:20;8.50;;;1.00;;
67053;SDS011;53960;51.826;5.850;2022-07-06T07:39:46;4.47;;;0.80;;
67053;SDS011;53960;51.826;5.850;2022-07-06T07:42:11;4.20;;;0.90;;
67053;SDS011;53960;51.826;5.850;2022-07-06T07:44:36;6.00;;;0.90;;
67053;SDS011;53960;51.826;5.850;2022-07-06T07:47:03;7.15;;;1.00;;
67053;SDS011;53960;51.826;5.850;2022-07-06T07:49:29;4.63;;;1.00;;
67053;SDS011;53960;51.826;5.850;2022-07-06T07:51:54;6.18;;;1.35;;
67053;SDS011;53960;51.826;5.850;2022-07-06T07:54:19;3.93;;;1.00;;
67053;SDS011;53960;51.826;5.850;2022-07-06T07:56:45;6.37;;;0.90;;
67053;SDS011;53960;51.826;5.850;2022-07-06T07:59:11;5.32;;;1.00;;
67053;SDS011;53960;51.826;5.850;2022-07-06T08:01:36;7.17;;;0.90;;
67053;SDS011;53960;51.826;5.850;2022-07-06T08:04:02;6.80;;;1.20;;
67053;SDS011;53960;51.826;5.850;2022-07-06T08:06:28;5.43;;;0.88;;
67053;SDS011;53960;51.826;5.850;2022-07-06T08:08:53;7.80;;;1.07;;
67053;SDS011;53960;51.826;5.850;2022-07-06T08:11:18;8.43;;;1.20;;
67053;SDS011;53960;51.826;5.850;2022-07-06T08:13:44;5.07;;;0.97;;
67053;SDS011;53960;51.826;5.850;2022-07-06T08:16:09;5.10;;;1.00;;
67053;SDS011;53960;51.826;5.850;2022-07-06T08:18:35;4.53;;;0.90;;
67053;SDS011;53960;51.826;5.850;2022-07-06T08:21:01;7.18;;;1.10;;
67053;SDS011;53960;51.826;5.850;2022-07-06T08:23:26;5.93;;;1.00;;
67053;SDS011;53960;51.826;5.850;2022-07-06T08:25:51;7.53;;;1.20;;
67053;SDS011;53960;51.826;5.850;2022-07-06T08:28:17;6.33;;;1.10;;
67053;SDS011;53960;51.826;5.850;2022-07-06T08:30:42;5.97;;;1.00;;
67053;SDS011;53960;51.826;5.850;2022-07-06T08:33:07;7.27;;;0.90;;
67053;SDS011;53960;51.826;5.850;2022-07-06T08:35:33;5.07;;;0.90;;
67053;SDS011;53960;51.826;5.850;2022-07-06T08:37:58;5.47;;;1.30;;
67053;SDS011;53960;51.826;5.850;2022-07-06T08:40:23;5.80;;;0.90;;
67053;SDS011;53960;51.826;5.850;2022-07-06T08:42:53;5.05;;;0.88;;
67053;SDS011;53960;51.826;5.850;2022-07-06T08:45:20;4.00;;;0.80;;
67053;SDS011;53960;51.826;5.850;2022-07-06T08:47:45;5.53;;;0.98;;
67053;SDS011;53960;51.826;5.850;2022-07-06T08:50:14;4.03;;;0.80;;
67053;SDS011;53960;51.826;5.850;2022-07-06T08:52:41;5.97;;;0.90;;
67053;SDS011;53960;51.826;5.850;2022-07-06T08:55:10;5.80;;;0.77;;
67053;SDS011;53960;51.826;5.850;2022-07-06T08:57:35;4.53;;;0.70;;
67053;SDS011;53960;51.826;5.850;2022-07-06T09:00:04;4.60;;;0.70;;
67053;SDS011;53960;51.826;5.850;2022-07-06T09:02:32;5.05;;;0.75;;
67053;SDS011;53960;51.826;5.850;2022-07-06T09:04:57;4.53;;;0.90;;
67053;SDS011;53960;51.826;5.850;2022-07-06T09:07:24;4.00;;;0.70;;
67053;SDS011;53960;51.826;5.850;2022-07-06T09:09:52;4.33;;;0.70;;
67053;SDS011;53960;51.826;5.850;2022-07-06T09:12:19;3.20;;;0.60;;
67053;SDS011;53960;51.826;5.850;2022-07-06T09:14:44;3.30;;;0.70;;
67053;SDS011;53960;51.826;5.850;2022-07-06T09:17:09;4.97;;;0.70;;
67053;SDS011;53960;51.826;5.850;2022-07-06T09:19:36;3.67;;;0.65;;
67053;SDS011;53960;51.826;5.850;2022-07-06T09:22:02;2.77;;;0.60;;
67053;SDS011;53960;51.826;5.850;2022-07-06T09:24:28;5.38;;;0.90;;
67053;SDS011;53960;51.826;5.850;2022-07-06T09:26:54;3.10;;;1.05;;
67053;SDS011;53960;51.826;5.850;2022-07-06T09:29:26;3.97;;;0.60;;
67053;SDS011;53960;51.826;5.850;2022-07-06T09:32:01;4.50;;;0.60;;
67053;SDS011;53960;51.826;5.850;2022-07-06T09:34:41;3.92;;;0.88;;
67053;SDS011;53960;51.826;5.850;2022-07-06T09:37:10;3.63;;;0.90;;
67053;SDS011;53960;51.826;5.850;2022-07-06T09:39:36;3.63;;;0.80;;
67053;SDS011;53960;51.826;5.850;2022-07-06T09:42:02;3.80;;;0.70;;
67053;SDS011;53960;51.826;5.850;2022-07-06T09:44:33;6.47;;;0.70;;
67053;SDS011;53960;51.826;5.850;2022-07-06T09:47:02;5.75;;;0.80;;
67053;SDS011;53960;51.826;5.850;2022-07-06T09:49:29;5.03;;;0.95;;
67053;SDS011;53960;51.826;5.850;2022-07-06T09:51:55;3.30;;;0.73;;
67053;SDS011;53960;51.826;5.850;2022-07-06T09:54:25;4.07;;;0.75;;
67053;SDS011;53960;51.826;5.850;2022-07-06T09:56:52;4.13;;;0.67;;
67053;SDS011;53960;51.826;5.850;2022-07-06T09:59:20;2.55;;;0.60;;
67053;SDS011;53960;51.826;5.850;2022-07-06T10:01:48;4.80;;;0.93;;
67053;SDS011;53960;51.826;5.850;2022-07-06T10:04:16;3.97;;;0.70;;
67053;SDS011;53960;51.826;5.850;2022-07-06T10:06:43;3.60;;;0.70;;
67053;SDS011;53960;51.826;5.850;2022-07-06T10:09:10;3.97;;;0.60;;
67053;SDS011;53960;51.826;5.850;2022-07-06T10:11:40;5.00;;;0.82;;
67053;SDS011;53960;51.826;5.850;2022-07-06T10:14:07;2.78;;;0.60;;
67053;SDS011;53960;51.826;5.850;2022-07-06T10:16:34;3.75;;;0.70;;
67053;SDS011;53960;51.826;5.850;2022-07-06T10:19:02;5.43;;;1.08;;
67053;SDS011;53960;51.826;5.850;2022-07-06T10:21:29;5.17;;;0.90;;
67053;SDS011;53960;51.826;5.850;2022-07-06T10:23:55;3.88;;;0.82;;
67053;SDS011;53960;51.826;5.850;2022-07-06T10:26:24;3.50;;;0.70;;
67053;SDS011;53960;51.826;5.850;2022-07-06T10:28:50;5.80;;;0.90;;
67053;SDS011;53960;51.826;5.850;2022-07-06T10:31:18;4.00;;;0.80;;
67053;SDS011;53960;51.826;5.850;2022-07-06T10:33:44;5.32;;;1.00;;
67053;SDS011;53960;51.826;5.850;2022-07-06T10:36:11;6.88;;;0.95;;
67053;SDS011;53960;51.826;5.850;2022-07-06T10:38:38;5.37;;;1.03;;
67053;SDS011;53960;51.826;5.850;2022-07-06T10:41:13;7.90;;;0.85;;
67053;SDS011;53960;51.826;5.850;2022-07-06T10:43:41;5.07;;;0.80;;
67053;SDS011;53960;51.826;5.850;2022-07-06T10:46:09;8.23;;;0.90;;
67053;SDS011;53960;51.826;5.850;2022-07-06T10:48:37;4.28;;;0.73;;
67053;SDS011;53960;51.826;5.850;2022-07-06T10:51:04;8.55;;;1.15;;
67053;SDS011;53960;51.826;5.850;2022-07-06T10:53:32;4.47;;;1.02;;
67053;SDS011;53960;51.826;5.850;2022-07-06T10:56:05;3.53;;;0.70;;
67053;SDS011;53960;51.826;5.850;2022-07-06T11:01:10;6.72;;;1.55;;
67053;SDS011;53960;51.826;5.850;2022-07-06T11:03:38;6.28;;;1.10;;
67053;SDS011;53960;51.826;5.850;2022-07-06T11:06:15;5.30;;;0.77;;
67053;SDS011;53960;51.826;5.850;2022-07-06T11:11:12;4.13;;;0.70;;
67053;SDS011;53960;51.826;5.850;2022-07-06T11:13:42;4.70;;;0.97;;
67053;SDS011;53960;51.826;5.850;2022-07-06T11:16:08;4.28;;;0.90;;
67053;SDS011;53960;51.826;5.850;2022-07-06T11:18:40;4.32;;;0.90;;
67053;SDS011;53960;51.826;5.850;2022-07-06T11:21:17;6.25;;;1.02;;
67053;SDS011;53960;51.826;5.850;2022-07-06T11:23:56;6.17;;;1.00;;
67053;SDS011;53960;51.826;5.850;2022-07-06T11:26:22;7.80;;;1.20;;
67053;SDS011;53960;51.826;5.850;2022-07-06T11:28:47;4.97;;;0.97;;
67053;SDS011;53960;51.826;5.850;2022-07-06T11:31:13;5.60;;;0.90;;
67053;SDS011;53960;51.826;5.850;2022-07-06T11:33:39;4.00;;;0.70;;
67053;SDS011;53960;51.826;5.850;2022-07-06T11:36:22;4.88;;;0.90;;
67053;SDS011;53960;51.826;5.850;2022-07-06T11:38:48;5.43;;;1.00;;
67053;SDS011;53960;51.826;5.850;2022-07-06T11:41:15;5.60;;;0.80;;
67053;SDS011;53960;51.826;5.850;2022-07-06T11:43:41;9.00;;;1.15;;
67053;SDS011;53960;51.826;5.850;2022-07-06T11:46:18;3.55;;;0.80;;
67053;SDS011;53960;51.826;5.850;2022-07-06T11:48:47;4.88;;;0.80;;
67053;SDS011;53960;51.826;5.850;2022-07-06T11:51:13;5.93;;;0.90;;
67053;SDS011;53960;51.826;5.850;2022-07-06T11:53:42;6.07;;;0.85;;
67053;SDS011;53960;51.826;5.850;2022-07-06T11:56:11;3.00;;;0.70;;
67053;SDS011;53960;51.826;5.850;2022-07-06T11:58:38;5.18;;;0.70;;
67053;SDS011;53960;51.826;5.850;2022-07-06T12:01:05;6.00;;;0.93;;
67053;SDS011;53960;51.826;5.850;2022-07-06T12:03:34;6.05;;;0.80;;
67053;SDS011;53960;51.826;5.850;2022-07-06T12:06:01;4.93;;;1.00;;
67053;SDS011;53960;51.826;5.850;2022-07-06T12:08:27;3.30;;;0.70;;
67053;SDS011;53960;51.826;5.850;2022-07-06T12:10:53;4.88;;;0.90;;
67053;SDS011;53960;51.826;5.850;2022-07-06T12:13:19;3.63;;;0.90;;
67053;SDS011;53960;51.826;5.850;2022-07-06T12:15:44;3.37;;;0.90;;
67053;SDS011;53960;51.826;5.850;2022-07-06T12:18:09;6.17;;;1.10;;
67053;SDS011;53960;51.826;5.850;2022-07-06T12:20:35;4.97;;;0.80;;
67053;SDS011;53960;51.826;5.850;2022-07-06T12:23:04;6.78;;;0.93;;
67053;SDS011;53960;51.826;5.850;2022-07-06T12:25:34;5.47;;;0.80;;
67053;SDS011;53960;51.826;5.850;2022-07-06T12:28:00;4.72;;;0.90;;
67053;SDS011;53960;51.826;5.850;2022-07-06T12:30:26;5.30;;;1.23;;
67053;SDS011;53960;51.826;5.850;2022-07-06T12:33:10;5.40;;;1.00;;
67053;SDS011;53960;51.826;5.850;2022-07-06T12:35:38;7.60;;;1.10;;
67053;SDS011;53960;51.826;5.850;2022-07-06T12:38:03;6.97;;;1.30;;
67053;SDS011;53960;51.826;5.850;2022-07-06T12:40:29;6.40;;;1.37;;
67053;SDS011;53960;51.826;5.850;2022-07-06T12:42:54;10.65;;;1.42;;
67053;SDS011;53960;51.826;5.850;2022-07-06T12:45:19;6.97;;;1.43;;
67053;SDS011;53960;51.826;5.850;2022-07-06T12:47:58;5.72;;;1.20;;
67053;SDS011;53960;51.826;5.850;2022-07-06T12:50:32;5.93;;;0.75;;
67053;SDS011;53960;51.826;5.850;2022-07-06T12:53:06;4.53;;;1.10;;
67053;SDS011;53960;51.826;5.850;2022-07-06T12:55:49;4.53;;;0.70;;
67053;SDS011;53960;51.826;5.850;2022-07-06T12:58:32;4.90;;;1.00;;
67053;SDS011;53960;51.826;5.850;2022-07-06T13:00:57;5.57;;;1.20;;
67053;SDS011;53960;51.826;5.850;2022-07-06T13:03:23;4.60;;;0.80;;
67053;SDS011;53960;51.826;5.850;2022-07-06T13:05:51;4.20;;;0.90;;
67053;SDS011;53960;51.826;5.850;2022-07-06T13:08:16;4.32;;;0.82;;
67053;SDS011;53960;51.826;5.850;2022-07-06T13:10:42;4.73;;;0.80;;
67053;SDS011;53960;51.826;5.850;2022-07-06T13:13:08;4.35;;;0.82;;
67053;SDS011;53960;51.826;5.850;2022-07-06T13:15:34;6.07;;;0.88;;
67053;SDS011;53960;51.826;5.850;2022-07-06T13:17:59;4.93;;;0.87;;
67053;SDS011;53960;51.826;5.850;2022-07-06T13:20:24;4.93;;;0.90;;
67053;SDS011;53960;51.826;5.850;2022-07-06T13:22:49;3.37;;;0.80;;
67053;SDS011;53960;51.826;5.850;2022-07-06T13:25:15;5.22;;;1.10;;
67053;SDS011;53960;51.826;5.850;2022-07-06T13:27:41;5.43;;;0.70;;
67053;SDS011;53960;51.826;5.850;2022-07-06T13:30:06;3.72;;;0.80;;
67053;SDS011;53960;51.826;5.850;2022-07-06T13:32:32;5.70;;;0.97;;
67053;SDS011;53960;51.826;5.850;2022-07-06T13:34:58;4.95;;;0.98;;
67053;SDS011;53960;51.826;5.850;2022-07-06T13:37:23;4.13;;;0.90;;
67053;SDS011;53960;51.826;5.850;2022-07-06T13:39:48;9.73;;;1.30;;
67053;SDS011;53960;51.826;5.850;2022-07-06T13:42:14;4.23;;;0.87;;
67053;SDS011;53960;51.826;5.850;2022-07-06T13:44:39;7.60;;;0.97;;
67053;SDS011;53960;51.826;5.850;2022-07-06T13:47:04;6.57;;;0.90;;
67053;SDS011;53960;51.826;5.850;2022-07-06T13:49:30;6.25;;;1.00;;
67053;SDS011;53960;51.826;5.850;2022-07-06T13:51:55;5.90;;;0.83;;
67053;SDS011;53960;51.826;5.850;2022-07-06T13:54:27;5.10;;;0.88;;
67053;SDS011;53960;51.826;5.850;2022-07-06T13:56:52;4.17;;;1.00;;
67053;SDS011;53960;51.826;5.850;2022-07-06T13:59:18;4.77;;;0.90;;
67053;SDS011;53960;51.826;5.850;2022-07-06T14:01:43;3.33;;;0.80;;
67053;SDS011;53960;51.826;5.850;2022-07-06T14:04:08;6.28;;;0.88;;
67053;SDS011;53960;51.826;5.850;2022-07-06T14:06:33;5.23;;;0.83;;
67053;SDS011;53960;51.826;5.850;2022-07-06T14:09:00;4.77;;;0.90;;
67053;SDS011;53960;51.826;5.850;2022-07-06T14:11:25;5.80;;;0.90;;
67053;SDS011;53960;51.826;5.850;2022-07-06T14:13:51;3.83;;;0.80;;
67053;SDS011;53960;51.826;5.850;2022-07-06T14:16:16;5.73;;;1.00;;
67053;SDS011;53960;51.826;5.850;2022-07-06T14:18:41;5.10;;;0.60;;
67053;SDS011;53960;51.826;5.850;2022-07-06T14:21:08;6.68;;;1.08;;
67053;SDS011;53960;51.826;5.850;2022-07-06T14:23:34;6.17;;;1.00;;
67053;SDS011;53960;51.826;5.850;2022-07-06T14:25:59;5.30;;;0.90;;
67053;SDS011;53960;51.826;5.850;2022-07-06T14:28:24;6.17;;;1.03;;
67053;SDS011;53960;51.826;5.850;2022-07-06T14:30:50;5.93;;;0.80;;
67053;SDS011;53960;51.826;5.850;2022-07-06T14:33:15;5.37;;;0.80;;
67053;SDS011;53960;51.826;5.850;2022-07-06T14:35:47;6.32;;;0.85;;
67053;SDS011;53960;51.826;5.850;2022-07-06T14:38:15;4.70;;;1.00;;
67053;SDS011;53960;51.826;5.850;2022-07-06T14:40:42;4.00;;;0.90;;
67053;SDS011;53960;51.826;5.850;2022-07-06T14:43:08;6.80;;;1.08;;
67053;SDS011;53960;51.826;5.850;2022-07-06T14:45:34;5.40;;;1.15;;
67053;SDS011;53960;51.826;5.850;2022-07-06T14:48:02;7.50;;;1.13;;
67053;SDS011;53960;51.826;5.850;2022-07-06T14:50:28;4.93;;;1.00;;